createdAt,value
2023-01-03T00:00:22.282Z,8.35
2023-01-03T00:03:14.304Z,7.95
2023-01-03T00:06:01.746Z,8.27
2023-01-03T00:08:49.826Z,7.90
2023-01-03T00:11:55.635Z,7.78
2023-01-03T00:14:44.820Z,9.15
2023-01-03T00:17:32.333Z,7.93
2023-01-03T00:20:21.137Z,7.20
2023-01-03T00:23:09.259Z,6.82
2023-01-03T00:25:56.916Z,7.50
2023-01-03T00:28:44.658Z,7.30
2023-01-03T00:31:32.025Z,6.90
2023-01-03T00:34:19.910Z,6.45
2023-01-03T00:37:08.867Z,6.20
2023-01-03T00:39:56.364Z,7.28
2023-01-03T00:42:57.824Z,5.70
2023-01-03T00:45:45.531Z,5.40
2023-01-03T00:48:33.095Z,5.40
2023-01-03T00:51:23.056Z,6.43
2023-01-03T00:54:12.864Z,6.75
2023-01-03T00:57:00.250Z,6.40
2023-01-03T00:59:47.832Z,6.30
2023-01-03T01:02:35.451Z,6.60
2023-01-03T01:05:23.512Z,5.35
2023-01-03T01:08:11.043Z,6.03
2023-01-03T01:11:05.524Z,5.10
2023-01-03T01:13:53.948Z,5.25
2023-01-03T01:16:41.187Z,5.32
2023-01-03T01:19:32.787Z,5.22
2023-01-03T01:22:23.656Z,4.63
2023-01-03T01:25:12.631Z,4.25
2023-01-03T01:28:04.704Z,4.68
2023-01-03T01:30:53.994Z,5.00
2023-01-03T01:33:44.354Z,4.18
2023-01-03T01:36:38.385Z,4.22
2023-01-03T01:39:30.079Z,5.28
2023-01-03T01:42:36.828Z,4.20
2023-01-03T01:45:31.687Z,4.05
2023-01-03T01:48:22.152Z,4.10
2023-01-03T01:51:13.652Z,4.25
2023-01-03T01:54:03.526Z,4.03
2023-01-03T01:56:55.861Z,4.45
2023-01-03T01:59:46.372Z,4.68
2023-01-03T02:02:37.921Z,3.75
2023-01-03T02:05:26.162Z,3.83
2023-01-03T02:08:15.540Z,4.43
2023-01-03T02:11:28.594Z,3.80
2023-01-03T02:14:40.527Z,5.00
2023-01-03T02:17:38.523Z,4.47
2023-01-03T02:20:37.167Z,5.00
2023-01-03T02:23:43.296Z,4.90
2023-01-03T02:26:46.181Z,6.03
2023-01-03T02:30:11.962Z,5.22
2023-01-03T02:33:10.522Z,6.07
2023-01-03T02:36:06.615Z,6.22
2023-01-03T02:39:00.266Z,5.78
2023-01-03T02:41:48.439Z,4.88
2023-01-03T02:44:38.517Z,5.05
2023-01-03T02:47:31.653Z,5.45
2023-01-03T02:50:25.105Z,4.88
2023-01-03T02:53:16.313Z,5.97
2023-01-03T02:56:08.723Z,6.13
2023-01-03T02:58:59.912Z,5.75
2023-01-03T03:01:50.279Z,5.70
2023-01-03T03:04:41.007Z,5.90
2023-01-03T03:07:32.860Z,6.13
2023-01-03T03:10:37.510Z,5.28
2023-01-03T03:13:31.046Z,5.95
2023-01-03T03:16:42.715Z,6.15
2023-01-03T03:19:49.926Z,5.55
2023-01-03T03:23:01.655Z,5.32
2023-01-03T03:25:52.500Z,5.15
2023-01-03T03:28:43.636Z,5.85
2023-01-03T03:31:34.810Z,5.53
2023-01-03T03:34:26.559Z,6.53
2023-01-03T03:37:17.966Z,5.40
2023-01-03T03:40:25.716Z,5.80
2023-01-03T03:43:40.202Z,5.57
2023-01-03T03:46:34.515Z,5.78
2023-01-03T03:52:32.107Z,5.78
2023-01-03T03:55:25.200Z,4.93
2023-01-03T03:58:16.876Z,5.95
2023-01-03T04:01:05.973Z,5.57
2023-01-03T04:03:56.228Z,6.25
2023-01-03T04:06:48.534Z,5.20
2023-01-03T04:09:35.982Z,5.03
2023-01-03T04:12:25.082Z,4.90
2023-01-03T04:15:13.049Z,5.10
2023-01-03T04:18:02.508Z,5.13
2023-01-03T04:20:50.124Z,4.68
2023-01-03T04:23:37.636Z,4.80
2023-01-03T04:26:25.181Z,5.63
2023-01-03T04:29:14.443Z,5.28
2023-01-03T04:32:02.080Z,4.18
2023-01-03T04:34:49.452Z,4.20
2023-01-03T04:37:37.039Z,4.32
2023-01-03T04:40:24.879Z,4.90
2023-01-03T04:43:29.256Z,5.20
2023-01-03T04:46:17.965Z,6.03
2023-01-03T04:49:07.310Z,5.38
2023-01-03T04:51:54.567Z,5.57
2023-01-03T04:54:42.196Z,5.85
2023-01-03T04:57:29.775Z,5.20
2023-01-03T05:00:17.768Z,5.50
2023-01-03T05:03:06.615Z,5.20
2023-01-03T05:05:53.961Z,5.07
2023-01-03T05:08:41.503Z,6.15
2023-01-03T05:11:29.004Z,5.15
2023-01-03T05:14:16.636Z,5.07
2023-01-03T05:17:04.095Z,5.07
2023-01-03T05:20:10.079Z,4.93
2023-01-03T05:23:29.415Z,5.55
2023-01-03T05:26:17.523Z,5.40
2023-01-03T05:29:04.715Z,5.47
2023-01-03T05:31:52.024Z,4.55
2023-01-03T05:34:39.401Z,5.43
2023-01-03T05:37:28.494Z,4.78
2023-01-03T05:40:16.060Z,4.72
2023-01-03T05:43:03.619Z,5.30
2023-01-03T05:45:52.538Z,5.40
2023-01-03T05:48:40.216Z,4.75
2023-01-03T05:51:27.780Z,5.35
2023-01-03T05:54:17.194Z,5.47
2023-01-03T05:57:04.438Z,5.22
2023-01-03T05:59:51.996Z,4.97
2023-01-03T06:02:39.735Z,5.38
2023-01-03T06:05:27.036Z,5.72
2023-01-03T06:08:14.670Z,5.93
2023-01-03T06:11:06.370Z,5.40
2023-01-03T06:13:54.352Z,6.32
2023-01-03T06:16:59.027Z,5.03
2023-01-03T06:19:46.630Z,5.75
2023-01-03T06:22:34.561Z,5.68
2023-01-03T06:25:23.394Z,6.95
2023-01-03T06:28:12.135Z,5.95
2023-01-03T06:30:59.572Z,5.20
2023-01-03T06:33:47.024Z,5.88
2023-01-03T06:36:34.534Z,6.30
2023-01-03T06:39:22.022Z,5.72
2023-01-03T06:42:26.992Z,5.53
2023-01-03T06:45:33.725Z,5.88
2023-01-03T06:48:38.501Z,4.95
2023-01-03T06:51:44.747Z,4.30
2023-01-03T06:54:35.268Z,4.90
2023-01-03T06:57:26.664Z,5.43
2023-01-03T07:00:17.115Z,4.90
2023-01-03T07:03:10.925Z,5.40
2023-01-03T07:05:58.974Z,5.40
2023-01-03T07:08:48.655Z,4.55
2023-01-03T07:11:36.693Z,4.88
2023-01-03T07:14:22.923Z,5.90
2023-01-03T07:17:11.844Z,5.20
2023-01-03T07:19:59.507Z,5.78
2023-01-03T07:22:46.961Z,5.68
2023-01-03T07:25:34.694Z,4.32
2023-01-03T07:28:22.189Z,4.63
2023-01-03T07:31:09.781Z,5.03
2023-01-03T07:33:58.491Z,4.60
2023-01-03T07:36:46.155Z,5.05
2023-01-03T07:39:33.863Z,5.13
2023-01-03T07:42:38.883Z,4.55
2023-01-03T07:45:26.058Z,4.80
2023-01-03T07:48:13.808Z,5.18
2023-01-03T07:51:02.439Z,4.88
2023-01-03T07:53:51.308Z,4.85
2023-01-03T07:56:38.816Z,4.32
2023-01-03T07:59:26.288Z,4.70
2023-01-03T08:02:14.105Z,5.00
2023-01-03T08:05:01.586Z,4.55
2023-01-03T08:07:50.839Z,4.22
2023-01-03T08:10:55.964Z,4.72
2023-01-03T08:13:43.697Z,4.68
2023-01-03T08:16:31.317Z,5.30
2023-01-03T08:19:18.880Z,4.43
2023-01-03T08:22:06.311Z,5.03
2023-01-03T08:24:55.271Z,4.18
2023-01-03T08:27:48.195Z,4.85
2023-01-03T08:30:41.669Z,4.63
2023-01-03T08:33:33.182Z,4.28
2023-01-03T08:36:21.936Z,3.97
2023-01-03T08:39:13.638Z,4.45
2023-01-03T08:42:05.864Z,3.65
2023-01-03T08:44:58.767Z,3.78
2023-01-03T08:47:46.823Z,4.72
2023-01-03T08:50:34.213Z,4.85
2023-01-03T08:53:22.996Z,4.40
2023-01-03T08:56:10.523Z,5.03
2023-01-03T08:58:59.512Z,4.30
2023-01-03T09:01:47.275Z,4.18
2023-01-03T09:04:34.741Z,4.25
2023-01-03T09:07:22.129Z,4.30
2023-01-03T09:10:10.514Z,4.97
2023-01-03T09:12:58.130Z,4.28
2023-01-03T09:15:46.904Z,4.07
2023-01-03T09:18:34.264Z,3.60
2023-01-03T09:21:21.450Z,3.53
2023-01-03T09:24:09.806Z,3.20
2023-01-03T09:26:57.122Z,3.95
2023-01-03T09:29:44.641Z,4.30
2023-01-03T09:32:33.624Z,3.25
2023-01-03T09:35:21.148Z,3.83
2023-01-03T09:38:08.773Z,4.10
2023-01-03T09:41:02.518Z,3.00
2023-01-03T09:43:52.211Z,4.25
2023-01-03T09:46:39.855Z,3.50
2023-01-03T09:49:28.666Z,3.85
2023-01-03T09:52:35.445Z,3.65
2023-01-03T09:55:46.725Z,4.05
2023-01-03T09:58:51.882Z,4.13
2023-01-03T10:02:00.069Z,3.85
2023-01-03T10:05:16.395Z,3.78
2023-01-03T10:08:34.862Z,3.72
2023-01-03T10:11:30.894Z,3.00
2023-01-03T10:14:24.849Z,3.42
2023-01-03T10:17:20.304Z,3.35
2023-01-03T10:20:20.482Z,2.80
2023-01-03T10:23:09.407Z,3.08
2023-01-03T10:25:57.484Z,2.92
2023-01-03T10:28:46.491Z,3.05
2023-01-03T10:31:47.540Z,3.03
2023-01-03T10:34:35.063Z,3.15
2023-01-03T10:37:25.328Z,3.45
2023-01-03T10:40:13.773Z,3.42
2023-01-03T10:43:09.275Z,3.90
2023-01-03T10:45:58.592Z,4.13
2023-01-03T10:51:58.904Z,4.75
2023-01-03T10:54:51.515Z,3.40
2023-01-03T10:57:44.065Z,3.33
2023-01-03T11:00:34.156Z,2.95
2023-01-03T11:03:23.916Z,3.05
2023-01-03T11:06:15.875Z,3.70
2023-01-03T11:09:05.231Z,3.50
2023-01-03T11:12:00.802Z,3.15
2023-01-03T11:14:52.817Z,3.00
2023-01-03T11:17:54.106Z,3.78
2023-01-03T11:20:42.342Z,2.88
2023-01-03T11:23:55.598Z,3.30
2023-01-03T11:26:49.135Z,3.25
2023-01-03T11:29:51.973Z,2.65
2023-01-03T11:32:55.184Z,2.78
2023-01-03T11:35:54.001Z,2.70
2023-01-03T11:38:50.770Z,2.75
2023-01-03T11:41:53.615Z,2.80
2023-01-03T11:45:05.464Z,2.97
2023-01-03T11:48:01.776Z,2.20
2023-01-03T11:50:54.465Z,2.92
2023-01-03T11:53:56.894Z,3.10
2023-01-03T11:56:46.140Z,2.42
2023-01-03T11:59:49.601Z,2.78
2023-01-03T12:03:03.219Z,2.88
2023-01-03T12:05:54.960Z,3.70
2023-01-03T12:08:49.873Z,2.75
2023-01-03T12:11:54.820Z,2.53
2023-01-03T12:14:47.619Z,2.80
2023-01-03T12:17:44.730Z,2.35
2023-01-03T12:20:37.565Z,2.38
2023-01-03T12:23:34.571Z,2.20
2023-01-03T12:26:25.573Z,2.70
2023-01-03T12:29:19.437Z,2.33
2023-01-03T12:32:09.710Z,2.40
2023-01-03T12:35:14.758Z,2.20
2023-01-03T12:38:06.227Z,1.98
2023-01-03T12:40:59.065Z,1.80
2023-01-03T12:43:53.569Z,2.00
2023-01-03T12:46:48.243Z,2.15
2023-01-03T12:49:42.239Z,3.00
2023-01-03T12:52:33.433Z,2.00
2023-01-03T12:55:29.933Z,1.60
2023-01-03T12:58:37.189Z,2.08
2023-01-03T13:01:30.131Z,1.67
2023-01-03T13:04:23.759Z,2.40
2023-01-03T13:07:16.469Z,2.22
2023-01-03T13:10:06.702Z,1.85
2023-01-03T13:12:55.755Z,1.67
2023-01-03T13:15:43.441Z,1.52
2023-01-03T13:18:32.693Z,1.50
2023-01-03T13:21:51.900Z,1.25
2023-01-03T13:24:45.093Z,1.80
2023-01-03T13:27:37.247Z,1.50
2023-01-03T13:30:27.005Z,1.85
2023-01-03T13:33:20.267Z,1.70
2023-01-03T13:36:09.009Z,1.60
2023-01-03T13:38:56.648Z,1.83
2023-01-03T13:41:44.361Z,1.30
2023-01-03T13:44:32.080Z,1.15
2023-01-03T13:47:26.845Z,1.50
2023-01-03T13:50:20.861Z,1.70
2023-01-03T13:56:00.983Z,1.40
2023-01-03T13:58:51.964Z,1.23
2023-01-03T14:01:52.125Z,1.30
2023-01-03T14:05:03.855Z,1.20
2023-01-03T14:08:01.987Z,1.48
2023-01-03T14:11:02.827Z,1.27
2023-01-03T14:13:51.018Z,1.33
2023-01-03T14:16:47.311Z,1.10
2023-01-03T14:19:36.848Z,1.33
2023-01-03T14:22:33.809Z,1.15
2023-01-03T14:25:35.949Z,1.40
2023-01-03T14:28:26.228Z,1.27
2023-01-03T14:31:19.652Z,1.05
2023-01-03T14:34:11.514Z,1.38
2023-01-03T14:37:08.293Z,1.40
2023-01-03T14:39:59.053Z,1.13
2023-01-03T14:42:46.778Z,1.10
2023-01-03T14:45:34.595Z,1.27
2023-01-03T14:48:23.205Z,1.20
2023-01-03T14:51:11.514Z,1.10
2023-01-03T14:53:59.617Z,1.00
2023-01-03T14:56:49.597Z,1.17
2023-01-03T14:59:37.958Z,1.30
2023-01-03T15:02:25.722Z,1.30
2023-01-03T15:05:27.148Z,1.40
2023-01-03T15:08:25.792Z,1.10
2023-01-03T15:11:14.558Z,1.10
2023-01-03T15:14:04.804Z,1.30
2023-01-03T15:16:53.500Z,1.20
2023-01-03T15:19:47.255Z,1.00
2023-01-03T15:22:41.536Z,1.40
2023-01-03T15:25:34.357Z,1.25
2023-01-03T15:28:26.686Z,1.50
2023-01-03T15:31:30.272Z,1.42
2023-01-03T15:34:19.797Z,1.45
2023-01-03T15:37:14.764Z,1.60
2023-01-03T15:40:05.646Z,2.00
2023-01-03T15:43:10.820Z,1.60
2023-01-03T15:46:03.430Z,1.10
2023-01-03T15:48:56.634Z,1.65
2023-01-03T15:51:44.120Z,1.30
2023-01-03T15:54:31.287Z,1.20
2023-01-03T15:57:21.148Z,1.45
2023-01-03T16:00:12.202Z,1.60
2023-01-03T16:02:59.784Z,1.70
2023-01-03T16:05:48.752Z,1.55
2023-01-03T16:08:36.808Z,1.55
2023-01-03T16:11:33.434Z,1.73
2023-01-03T16:14:34.031Z,1.70
2023-01-03T16:17:25.818Z,2.10
2023-01-03T16:20:15.077Z,2.22
2023-01-03T16:23:03.508Z,1.92
2023-01-03T16:25:50.815Z,1.75
2023-01-03T16:28:38.230Z,1.80
2023-01-03T16:31:29.403Z,1.92
2023-01-03T16:34:19.627Z,2.13
2023-01-03T16:37:10.163Z,2.28
2023-01-03T16:39:59.358Z,2.22
2023-01-03T16:42:47.374Z,2.00
2023-01-03T16:45:35.004Z,2.10
2023-01-03T16:48:24.873Z,2.30
2023-01-03T16:51:19.499Z,2.08
2023-01-03T16:54:08.973Z,2.20
2023-01-03T16:56:57.891Z,2.10
2023-01-03T16:59:46.064Z,2.20
2023-01-03T17:02:33.510Z,1.90
2023-01-03T17:05:20.965Z,2.03
2023-01-03T17:08:16.829Z,2.30
2023-01-03T17:11:04.091Z,1.75
2023-01-03T17:13:56.600Z,1.80
2023-01-03T17:16:44.505Z,1.90
2023-01-03T17:22:40.705Z,2.00
2023-01-03T17:25:28.455Z,1.80
2023-01-03T17:28:15.743Z,2.03
2023-01-03T17:31:04.768Z,1.95
2023-01-03T17:33:52.922Z,1.88
2023-01-03T17:36:40.540Z,1.50
2023-01-03T17:39:28.890Z,1.58
2023-01-03T17:42:17.989Z,1.95
2023-01-03T17:45:23.017Z,1.58
2023-01-03T17:48:30.369Z,1.77
2023-01-03T17:51:18.206Z,1.83
2023-01-03T17:54:05.743Z,1.70
2023-01-03T17:56:53.220Z,1.77
2023-01-03T17:59:40.729Z,1.85
2023-01-03T18:02:29.124Z,2.00
2023-01-03T18:05:26.639Z,1.75
2023-01-03T18:08:19.306Z,1.75
2023-01-03T18:11:07.442Z,1.63
2023-01-03T18:13:54.947Z,1.75
2023-01-03T18:16:42.714Z,1.48
2023-01-03T18:19:30.068Z,2.00
2023-01-03T18:22:18.943Z,2.00
2023-01-03T18:25:07.481Z,2.28
2023-01-03T18:27:59.311Z,2.20
2023-01-03T18:30:47.016Z,1.58
2023-01-03T18:33:34.483Z,2.70
2023-01-03T18:36:27.288Z,1.38
2023-01-03T18:39:19.550Z,1.60
2023-01-03T18:42:24.430Z,1.70
2023-01-03T18:45:13.335Z,1.70
2023-01-03T18:48:00.975Z,1.38
2023-01-03T18:50:57.423Z,1.58
2023-01-03T18:53:51.878Z,1.67
2023-01-03T18:56:42.136Z,2.08
2023-01-03T18:59:29.946Z,1.83
2023-01-03T19:02:19.415Z,1.70
2023-01-03T19:05:07.784Z,1.83
2023-01-03T19:07:55.813Z,2.25
2023-01-03T19:10:43.205Z,1.88
2023-01-03T19:13:50.130Z,1.67
2023-01-03T19:16:39.246Z,1.60
2023-01-03T19:19:26.830Z,1.92
2023-01-03T19:22:24.153Z,1.50
2023-01-03T19:25:17.611Z,2.42
2023-01-03T19:28:05.969Z,1.50
2023-01-03T19:30:54.963Z,1.90
2023-01-03T19:33:42.246Z,1.70
2023-01-03T19:36:29.893Z,2.05
2023-01-03T19:39:24.085Z,1.33
2023-01-03T19:42:31.401Z,1.73
2023-01-03T19:45:25.843Z,1.70
2023-01-03T19:48:17.962Z,1.70
2023-01-03T19:51:06.252Z,1.48
2023-01-03T19:53:53.572Z,1.85
2023-01-03T19:56:41.265Z,1.70
2023-01-03T19:59:31.052Z,1.80
2023-01-03T20:02:34.657Z,1.83
2023-01-03T20:05:24.965Z,1.90
2023-01-03T20:08:12.868Z,1.58
2023-01-03T20:11:00.569Z,1.77
2023-01-03T20:13:48.580Z,1.90
2023-01-03T20:16:36.236Z,2.17
2023-01-03T20:19:23.531Z,1.55
2023-01-03T20:22:37.342Z,1.80
2023-01-03T20:25:26.104Z,1.85
2023-01-03T20:28:18.133Z,1.85
2023-01-03T20:31:08.108Z,2.10
2023-01-03T20:33:55.569Z,1.55
2023-01-03T20:36:45.226Z,2.10
2023-01-03T20:39:36.464Z,1.70
2023-01-03T20:42:24.973Z,1.60
2023-01-03T20:45:15.044Z,2.30
2023-01-03T20:48:02.515Z,1.52
2023-01-03T20:50:50.102Z,1.77
2023-01-03T20:53:42.685Z,1.80
2023-01-03T20:56:33.352Z,1.98
2023-01-03T20:59:22.051Z,1.92
2023-01-03T21:02:10.700Z,1.88
2023-01-03T21:04:58.302Z,2.00
2023-01-03T21:08:03.659Z,1.77
2023-01-03T21:10:53.762Z,2.40
2023-01-03T21:13:42.772Z,1.92
2023-01-03T21:16:33.436Z,2.08
2023-01-03T21:19:22.131Z,1.88
2023-01-03T21:22:18.748Z,2.10
2023-01-03T21:25:08.754Z,1.33
2023-01-03T21:27:56.449Z,1.92
2023-01-03T21:30:45.690Z,2.00
2023-01-03T21:33:33.048Z,1.65
2023-01-03T21:36:24.193Z,1.48
2023-01-03T21:39:12.238Z,2.00
2023-01-03T21:42:28.542Z,2.13
2023-01-03T21:45:15.902Z,2.00
2023-01-03T21:48:07.310Z,1.80
2023-01-03T21:50:54.767Z,1.80
2023-01-03T21:53:42.958Z,1.77
2023-01-03T21:56:30.637Z,2.50
2023-01-03T21:59:18.376Z,2.03
2023-01-03T22:02:23.178Z,1.80
2023-01-03T22:05:12.290Z,2.55
2023-01-03T22:08:00.939Z,2.63
2023-01-03T22:10:49.805Z,2.10
2023-01-03T22:13:37.675Z,1.92
2023-01-03T22:16:25.178Z,1.85
2023-01-03T22:19:12.981Z,1.80
2023-01-03T22:22:02.021Z,2.33
2023-01-03T22:24:49.766Z,2.20
2023-01-03T22:27:37.315Z,2.38
2023-01-03T22:30:25.253Z,2.20
2023-01-03T22:33:12.777Z,2.35
2023-01-03T22:36:00.294Z,1.85
2023-01-03T22:38:49.954Z,1.95
2023-01-03T22:41:37.319Z,2.03
2023-01-03T22:44:25.050Z,2.20
2023-01-03T22:47:12.522Z,1.83
2023-01-03T22:50:00.186Z,2.22
2023-01-03T22:52:47.590Z,2.67
2023-01-03T22:55:36.588Z,1.75
2023-01-03T22:58:24.280Z,2.28
2023-01-03T23:01:15.706Z,1.90
2023-01-03T23:04:04.013Z,2.10
2023-01-03T23:06:51.566Z,2.28
2023-01-03T23:09:39.095Z,1.70
2023-01-03T23:12:45.282Z,1.42
2023-01-03T23:15:33.094Z,1.98
2023-01-03T23:18:20.690Z,1.65
2023-01-03T23:21:08.502Z,2.13
2023-01-03T23:23:56.074Z,1.92
2023-01-03T23:26:44.349Z,2.50
2023-01-03T23:29:33.028Z,1.48
2023-01-03T23:32:20.692Z,2.05
2023-01-03T23:35:09.137Z,2.38
2023-01-03T23:37:57.870Z,1.52
2023-01-03T23:40:45.493Z,1.90
2023-01-03T23:43:32.944Z,1.92
2023-01-03T23:46:23.602Z,1.88
2023-01-03T23:49:12.742Z,2.40
2023-01-03T23:52:00.131Z,1.60
2023-01-03T23:54:47.490Z,2.47
2023-01-03T23:57:34.719Z,2.40
